Time;durP1;ratioP1;P1;durP2;ratioP2;P2;SDS_P1;SDS_P2;PMS_P1;PMS_P2;Temp;Humidity;BMP_temperature;BMP_pressure;BME280_temperature;BME280_humidity;BME280_pressure;Samples;Min_cycle;Max_cycle;Signal;HPM_P1;HPM_P2
2023/10/10 00:02:04;;;;;;;14.20;6.07;;;;;;;;;;5045585;28;20028;-36
2023/10/10 00:04:32;;;;;;;9.63;5.60;;;;;;;;;;5046217;28;20036;-36
2023/10/10 00:06:58;;;;;;;11.02;6.25;;;;;;;;;;5043828;28;20112;-36
2023/10/10 00:09:23;;;;;;;9.27;6.13;;;;;;;;;;5032720;28;20029;-35
2023/10/10 00:11:51;;;;;;;12.32;7.00;;;;;;;;;;5044961;28;20745;-36
2023/10/10 00:14:19;;;;;;;16.13;6.55;;;;;;;;;;5044287;28;20048;-36
2023/10/10 00:16:47;;;;;;;11.38;6.90;;;;;;;;;;5045845;28;20043;-36
2023/10/10 00:19:28;;;;;;;23.00;11.27;;;;;;;;;;5044221;28;20017;-37
2023/10/10 00:21:54;;;;;;;17.15;7.95;;;;;;;;;;5049264;28;20082;-36
2023/10/10 00:24:41;;;;;;;9.23;4.30;;;;;;;;;;5048646;28;20021;-36
2023/10/10 00:27:15;;;;;;;9.77;5.88;;;;;;;;;;5046550;28;20079;-36
2023/10/10 00:29:43;;;;;;;10.82;5.80;;;;;;;;;;5051920;28;20024;-36
2023/10/10 00:32:21;;;;;;;10.13;5.95;;;;;;;;;;5041537;28;20560;-36
2023/10/10 00:34:47;;;;;;;12.07;6.10;;;;;;;;;;5045879;28;20083;-37
2023/10/10 00:37:20;;;;;;;9.57;6.07;;;;;;;;;;5045729;28;20467;-36
2023/10/10 00:39:52;;;;;;;11.73;6.43;;;;;;;;;;5049089;28;20024;-36
2023/10/10 00:42:41;;;;;;;10.82;6.15;;;;;;;;;;5045752;28;20117;-37
2023/10/10 00:45:09;;;;;;;14.05;6.32;;;;;;;;;;5044987;28;20167;-36
2023/10/10 00:47:41;;;;;;;11.40;6.82;;;;;;;;;;5045211;28;20490;-36
2023/10/10 00:50:08;;;;;;;9.70;6.27;;;;;;;;;;5048555;28;20024;-37
2023/10/10 00:52:36;;;;;;;9.32;5.25;;;;;;;;;;5047035;28;20112;-36
2023/10/10 00:55:04;;;;;;;10.63;6.03;;;;;;;;;;5044648;28;20029;-37
2023/10/10 00:57:35;;;;;;;22.00;10.20;;;;;;;;;;5036673;28;20033;-37
2023/10/10 01:00:03;;;;;;;14.57;8.43;;;;;;;;;;5044758;28;20387;-36
2023/10/10 01:02:30;;;;;;;9.05;6.28;;;;;;;;;;5044988;28;20037;-36
2023/10/10 01:04:56;;;;;;;13.20;6.60;;;;;;;;;;5046888;28;20021;-36
2023/10/10 01:07:22;;;;;;;13.05;6.35;;;;;;;;;;5046280;28;20268;-36
2023/10/10 01:09:55;;;;;;;11.48;6.78;;;;;;;;;;5043372;28;20029;-36
2023/10/10 01:12:22;;;;;;;11.10;6.30;;;;;;;;;;5048806;28;20040;-36
2023/10/10 01:14:54;;;;;;;12.65;6.00;;;;;;;;;;5051566;28;20040;-36
2023/10/10 01:17:19;;;;;;;12.43;6.88;;;;;;;;;;5047200;28;20402;-37
2023/10/10 01:19:45;;;;;;;10.98;6.30;;;;;;;;;;5049656;28;20506;-36
2023/10/10 01:22:22;;;;;;;38.67;8.93;;;;;;;;;;5045906;28;20021;-36
2023/10/10 01:24:51;;;;;;;12.98;7.28;;;;;;;;;;5045941;28;20271;-36
2023/10/10 01:27:21;;;;;;;16.55;7.72;;;;;;;;;;5049849;28;20904;-36
2023/10/10 01:30:17;;;;;;;11.80;6.82;;;;;;;;;;5049058;28;20029;-36
2023/10/10 01:32:40;;;;;;;12.25;6.38;;;;;;;;;;5043554;28;20053;-36
2023/10/10 01:35:15;;;;;;;11.73;6.82;;;;;;;;;;5048106;28;20017;-36
2023/10/10 01:37:41;;;;;;;11.90;7.18;;;;;;;;;;5044955;28;20025;-36
2023/10/10 01:40:16;;;;;;;11.27;6.10;;;;;;;;;;5051210;28;20052;-36
2023/10/10 01:42:51;;;;;;;12.25;6.95;;;;;;;;;;5049524;28;20037;-36
2023/10/10 01:45:19;;;;;;;13.50;6.68;;;;;;;;;;5049743;28;20032;-37
2023/10/10 01:47:56;;;;;;;11.00;6.78;;;;;;;;;;5048812;28;20065;-36
2023/10/10 01:50:22;;;;;;;10.75;7.30;;;;;;;;;;5046032;28;20021;-36
2023/10/10 01:52:48;;;;;;;12.73;6.88;;;;;;;;;;5046228;28;20035;-36
2023/10/10 01:55:16;;;;;;;12.60;7.80;;;;;;;;;;5046489;28;20123;-36
2023/10/10 01:57:41;;;;;;;13.27;7.47;;;;;;;;;;5042270;28;20025;-36
2023/10/10 02:02:52;;;;;;;14.25;7.68;;;;;;;;;;5037547;28;20557;-36
2023/10/10 02:07:57;;;;;;;11.10;6.68;;;;;;;;;;5042338;28;20025;-36
2023/10/10 02:10:26;;;;;;;13.23;7.10;;;;;;;;;;5045744;28;20005;-36
2023/10/10 02:12:52;;;;;;;16.75;6.90;;;;;;;;;;5047681;28;20072;-36
2023/10/10 02:15:25;;;;;;;12.88;7.57;;;;;;;;;;5045241;28;20048;-36
2023/10/10 02:17:51;;;;;;;11.98;6.97;;;;;;;;;;5044117;28;20091;-36
2023/10/10 02:22:53;;;;;;;13.13;7.13;;;;;;;;;;5045955;28;20048;-36
2023/10/10 02:25:37;;;;;;;16.88;7.20;;;;;;;;;;5045757;28;20573;-36
2023/10/10 02:28:08;;;;;;;13.23;7.30;;;;;;;;;;5046758;28;20040;-37
2023/10/10 02:30:37;;;;;;;12.13;7.45;;;;;;;;;;5044432;28;20020;-36
2023/10/10 02:33:13;;;;;;;14.98;7.30;;;;;;;;;;5045061;28;20104;-37
2023/10/10 02:35:54;;;;;;;11.88;6.35;;;;;;;;;;5047245;28;20076;-37
2023/10/10 02:38:33;;;;;;;13.20;7.65;;;;;;;;;;5042284;28;20019;-37
2023/10/10 02:43:55;;;;;;;13.30;6.05;;;;;;;;;;5044565;28;20025;-36
2023/10/10 02:46:47;;;;;;;12.10;6.50;;;;;;;;;;5044574;28;20021;-36
2023/10/10 02:49:13;;;;;;;13.32;6.47;;;;;;;;;;5040751;28;20950;-36
2023/10/10 02:51:43;;;;;;;14.95;6.95;;;;;;;;;;5035453;28;20037;-37
2023/10/10 02:54:22;;;;;;;12.95;7.38;;;;;;;;;;5045746;28;20117;-36
2023/10/10 02:56:48;;;;;;;13.20;6.68;;;;;;;;;;5041987;28;20028;-36
2023/10/10 02:59:17;;;;;;;14.27;7.25;;;;;;;;;;5039466;28;20033;-37
2023/10/10 03:01:59;;;;;;;15.13;7.25;;;;;;;;;;5043167;28;20106;-36
2023/10/10 03:07:08;;;;;;;14.00;6.80;;;;;;;;;;5046248;28;19957;-36
2023/10/10 03:10:06;;;;;;;13.23;7.37;;;;;;;;;;5047414;28;20056;-36
2023/10/10 03:12:25;;;;;;;12.27;7.10;;;;;;;;;;5049976;28;20279;-36
2023/10/10 03:14:53;;;;;;;13.10;7.30;;;;;;;;;;5041380;28;20025;-37
2023/10/10 03:17:44;;;;;;;13.07;7.40;;;;;;;;;;5036383;28;20021;-37
2023/10/10 03:31:10;;;;;;;0.00;0.00;;;;;;;;;;5043207;28;20025;-36
2023/10/10 03:33:37;;;;;;;11.70;6.68;;;;;;;;;;5037818;28;20387;-36
2023/10/10 05:23:29;;;;;;;12.60;7.03;;;;;;;;;;5040577;28;20023;-36
2023/10/10 05:25:22;;;;;;;15.90;9.23;;;;;;;;;;5046552;28;20140;-36
2023/10/10 05:27:48;;;;;;;17.05;10.18;;;;;;;;;;5042954;28;20037;-36
2023/10/10 05:30:27;;;;;;;19.52;10.25;;;;;;;;;;5048213;28;20032;-39
2023/10/10 05:33:02;;;;;;;20.52;11.38;;;;;;;;;;5045606;28;20560;-36
2023/10/10 05:35:36;;;;;;;61.47;33.50;;;;;;;;;;5044642;28;20399;-36
2023/10/10 05:38:02;;;;;;;44.70;24.25;;;;;;;;;;5045406;28;20020;-36
2023/10/10 05:40:27;;;;;;;30.48;15.18;;;;;;;;;;5041508;28;20025;-36
2023/10/10 05:42:53;;;;;;;21.30;11.95;;;;;;;;;;5042491;28;20033;-36
2023/10/10 05:45:18;;;;;;;22.42;12.80;;;;;;;;;;5047224;28;20017;-36
2023/10/10 05:47:44;;;;;;;11.88;7.38;;;;;;;;;;5042466;28;20013;-36
2023/10/10 05:50:10;;;;;;;24.00;12.27;;;;;;;;;;5044022;28;20231;-36
2023/10/10 05:52:38;;;;;;;20.15;10.52;;;;;;;;;;5038635;28;20036;-36
2023/10/10 05:55:04;;;;;;;20.30;11.10;;;;;;;;;;5045931;28;20191;-36
2023/10/10 05:57:29;;;;;;;17.45;10.13;;;;;;;;;;5042128;28;20112;-36
2023/10/10 05:59:54;;;;;;;16.53;9.70;;;;;;;;;;5046539;28;20578;-36
2023/10/10 06:02:21;;;;;;;21.53;10.17;;;;;;;;;;5040877;28;20303;-36
2023/10/10 06:04:47;;;;;;;22.27;10.60;;;;;;;;;;5040374;28;20271;-35
2023/10/10 06:07:12;;;;;;;16.65;10.52;;;;;;;;;;5046675;28;20078;-36
2023/10/10 06:09:41;;;;;;;77.18;40.55;;;;;;;;;;5047056;28;21305;-36
2023/10/10 06:12:09;;;;;;;55.75;28.15;;;;;;;;;;5043819;28;20032;-36
2023/10/10 06:14:36;;;;;;;33.22;16.90;;;;;;;;;;5040988;28;20170;-36
2023/10/10 06:17:01;;;;;;;21.80;12.75;;;;;;;;;;5041043;28;20032;-36
2023/10/10 06:19:26;;;;;;;22.40;12.60;;;;;;;;;;5042543;28;20025;-36
2023/10/10 06:21:55;;;;;;;20.03;12.20;;;;;;;;;;5044459;28;20321;-36
2023/10/10 06:24:22;;;;;;;22.08;11.95;;;;;;;;;;5047645;28;20318;-36
2023/10/10 06:26:49;;;;;;;19.63;12.02;;;;;;;;;;5040446;28;20029;-35
2023/10/10 06:29:15;;;;;;;24.05;13.68;;;;;;;;;;5043096;28;20371;-36
2023/10/10 06:31:44;;;;;;;22.45;12.02;;;;;;;;;;5043541;28;20044;-36
2023/10/10 06:34:34;;;;;;;18.42;11.40;;;;;;;;;;5023512;28;20646;-36
2023/10/10 06:36:58;;;;;;;22.88;12.00;;;;;;;;;;5045609;28;20043;-36
2023/10/10 06:39:32;;;;;;;21.73;11.10;;;;;;;;;;5046822;28;20024;-36
2023/10/10 06:41:58;;;;;;;18.77;11.45;;;;;;;;;;5043116;28;20376;-36
2023/10/10 06:44:32;;;;;;;21.73;12.50;;;;;;;;;;5043037;28;20036;-36
2023/10/10 06:46:58;;;;;;;22.42;11.88;;;;;;;;;;5034829;28;20056;-36
2023/10/10 06:49:23;;;;;;;17.98;9.95;;;;;;;;;;5044781;28;20060;-36
2023/10/10 06:51:50;;;;;;;24.08;11.57;;;;;;;;;;5039176;28;20053;-36
2023/10/10 06:54:27;;;;;;;18.25;10.85;;;;;;;;;;5044781;28;20029;-36
2023/10/10 06:59:27;;;;;;;23.75;10.70;;;;;;;;;;5046383;28;20029;-36
2023/10/10 07:01:52;;;;;;;19.17;10.18;;;;;;;;;;5038291;28;20049;-36
2023/10/10 07:04:19;;;;;;;17.63;9.40;;;;;;;;;;5046315;28;20020;-35
2023/10/10 07:06:47;;;;;;;18.50;8.50;;;;;;;;;;5041505;28;20112;-35
2023/10/10 07:09:27;;;;;;;17.38;10.35;;;;;;;;;;5048734;28;20021;-36
2023/10/10 07:11:53;;;;;;;18.35;10.07;;;;;;;;;;5044097;28;20037;-36
2023/10/10 07:14:18;;;;;;;12.75;8.05;;;;;;;;;;5043085;28;20028;-35
2023/10/10 07:16:43;;;;;;;12.23;7.43;;;;;;;;;;5038191;28;20122;-35
2023/10/10 07:19:33;;;;;;;14.15;8.38;;;;;;;;;;5041975;28;20020;-35
2023/10/10 07:21:59;;;;;;;11.30;6.40;;;;;;;;;;5042453;28;20568;-36
2023/10/10 07:24:40;;;;;;;11.98;6.80;;;;;;;;;;5041695;28;20056;-35
2023/10/10 07:27:11;;;;;;;13.63;6.25;;;;;;;;;;5023969;28;20426;-35
2023/10/10 07:32:16;;;;;;;10.43;6.75;;;;;;;;;;5044578;28;20025;-35
2023/10/10 07:34:49;;;;;;;12.35;7.68;;;;;;;;;;5044340;28;20033;-35
2023/10/10 07:37:15;;;;;;;10.68;6.53;;;;;;;;;;5046088;28;20021;-36
2023/10/10 07:39:55;;;;;;;9.55;5.63;;;;;;;;;;5044480;28;20036;-36
2023/10/10 07:42:27;;;;;;;10.90;6.13;;;;;;;;;;5041112;28;20621;-35
2023/10/10 07:44:55;;;;;;;6.35;3.58;;;;;;;;;;5042699;28;20028;-35
2023/10/10 07:47:29;;;;;;;8.35;5.45;;;;;;;;;;5036088;28;20040;-36
2023/10/10 07:49:54;;;;;;;13.50;7.72;;;;;;;;;;5043170;28;20025;-36
2023/10/10 07:52:20;;;;;;;13.27;6.63;;;;;;;;;;5045646;28;20031;-36
2023/10/10 07:54:46;;;;;;;8.40;5.72;;;;;;;;;;5042148;28;20021;-36
2023/10/10 07:57:17;;;;;;;6.95;4.38;;;;;;;;;;5044192;28;20025;-36
2023/10/10 07:59:42;;;;;;;6.20;3.92;;;;;;;;;;5043524;28;20029;-36
2023/10/10 08:02:24;;;;;;;7.70;4.50;;;;;;;;;;5042893;28;20422;-36
2023/10/10 08:04:50;;;;;;;7.97;5.05;;;;;;;;;;5039381;28;20056;-36
2023/10/10 08:07:18;;;;;;;9.15;6.40;;;;;;;;;;5041307;28;20029;-36
2023/10/10 08:09:45;;;;;;;11.85;6.47;;;;;;;;;;5040966;28;20434;-35
2023/10/10 08:12:11;;;;;;;12.05;7.10;;;;;;;;;;5035800;28;20556;-36
2023/10/10 08:14:39;;;;;;;9.40;5.60;;;;;;;;;;5043417;28;20568;-36
2023/10/10 08:17:18;;;;;;;9.50;6.22;;;;;;;;;;5045884;28;20040;-35
2023/10/10 08:19:50;;;;;;;8.88;5.40;;;;;;;;;;5040971;28;20558;-36
2023/10/10 08:22:15;;;;;;;8.43;5.25;;;;;;;;;;5042554;28;20392;-36
2023/10/10 08:24:43;;;;;;;9.85;5.65;;;;;;;;;;5043533;28;20025;-35
2023/10/10 08:27:10;;;;;;;9.13;5.20;;;;;;;;;;5047437;28;20096;-36
2023/10/10 08:29:35;;;;;;;7.03;4.35;;;;;;;;;;5044334;28;20025;-36
2023/10/10 08:32:01;;;;;;;7.03;4.17;;;;;;;;;;5041618;28;20035;-36
2023/10/10 08:34:26;;;;;;;7.90;4.90;;;;;;;;;;5045201;28;20770;-36
2023/10/10 08:36:56;;;;;;;7.18;4.47;;;;;;;;;;5039043;28;20395;-36
2023/10/10 08:41:52;;;;;;;5.75;4.10;;;;;;;;;;5042797;28;20033;-36
2023/10/10 08:44:18;;;;;;;6.70;3.90;;;;;;;;;;5047305;28;20025;-35
2023/10/10 08:46:48;;;;;;;9.60;4.57;;;;;;;;;;5047395;28;20102;-36
2023/10/10 08:49:14;;;;;;;4.85;3.10;;;;;;;;;;5049587;28;20437;-38
2023/10/10 08:51:41;;;;;;;4.38;2.67;;;;;;;;;;5048905;28;20509;-35
2023/10/10 08:54:10;;;;;;;5.95;3.40;;;;;;;;;;5048152;28;20164;-35
2023/10/10 08:56:37;;;;;;;5.55;3.28;;;;;;;;;;5048423;28;20021;-36
2023/10/10 08:59:03;;;;;;;7.88;4.47;;;;;;;;;;5044710;28;20496;-36
2023/10/10 09:01:33;;;;;;;9.63;5.13;;;;;;;;;;5046031;28;20077;-36
2023/10/10 09:03:58;;;;;;;5.55;3.67;;;;;;;;;;5047166;28;20048;-36
2023/10/10 09:06:32;;;;;;;5.95;3.30;;;;;;;;;;5045203;28;20046;-36
2023/10/10 09:09:00;;;;;;;4.93;3.40;;;;;;;;;;5048837;28;20079;-35
2023/10/10 09:11:28;;;;;;;5.00;3.67;;;;;;;;;;5046273;28;20144;-35
2023/10/10 09:13:54;;;;;;;5.78;3.53;;;;;;;;;;5045722;28;20037;-35
2023/10/10 09:16:39;;;;;;;11.10;4.15;;;;;;;;;;5042213;28;20023;-35
2023/10/10 09:19:08;;;;;;;5.97;2.67;;;;;;;;;;5045427;28;20017;-35
2023/10/10 09:21:44;;;;;;;9.20;4.63;;;;;;;;;;5047246;28;20056;-35
2023/10/10 09:24:27;;;;;;;11.18;5.32;;;;;;;;;;5027245;28;20017;-35
2023/10/10 09:26:56;;;;;;;8.32;4.30;;;;;;;;;;5038831;28;20166;-35
2023/10/10 09:29:30;;;;;;;7.68;4.75;;;;;;;;;;5046120;28;20494;-35
2023/10/10 09:31:59;;;;;;;10.00;4.57;;;;;;;;;;5045393;28;20086;-35
2023/10/10 09:34:28;;;;;;;7.25;4.55;;;;;;;;;;5047144;28;20070;-35
2023/10/10 09:36:57;;;;;;;9.68;5.70;;;;;;;;;;5046848;28;20089;-35
2023/10/10 09:39:37;;;;;;;11.95;6.03;;;;;;;;;;5046407;28;20383;-35
2023/10/10 09:50:45;;;;;;;10.45;5.20;;;;;;;;;;5041680;28;20053;-35
2023/10/10 09:53:01;;;;;;;11.68;4.93;;;;;;;;;;5042710;28;20402;-35
2023/10/10 10:00:45;;;;;;;9.10;5.22;;;;;;;;;;5046718;28;20024;-35
2023/10/10 10:05:58;;;;;;;14.60;6.03;;;;;;;;;;5042460;28;20479;-35
2023/10/10 10:08:23;;;;;;;;;;;;;;;;;;5045172;28;20056;-35
2023/10/10 10:10:56;;;;;;;12.85;6.78;;;;;;;;;;5044549;28;20058;-35
2023/10/10 10:13:40;;;;;;;8.57;4.85;;;;;;;;;;5043977;28;20024;-35
2023/10/10 10:16:20;;;;;;;9.63;5.45;;;;;;;;;;5044681;28;20097;-35
2023/10/10 10:18:52;;;;;;;12.82;5.60;;;;;;;;;;5042076;28;20032;-35
2023/10/10 10:21:19;;;;;;;12.55;6.20;;;;;;;;;;5051268;28;20021;-35
2023/10/10 10:23:47;;;;;;;9.82;6.45;;;;;;;;;;5044264;28;20720;-35
2023/10/10 10:26:31;;;;;;;11.40;6.15;;;;;;;;;;5041639;28;20017;-35
2023/10/10 10:28:57;;;;;;;11.30;6.30;;;;;;;;;;5038837;28;20009;-35
2023/10/10 10:31:29;;;;;;;14.05;7.07;;;;;;;;;;5042277;28;20086;-35
2023/10/10 10:34:31;;;;;;;11.98;6.72;;;;;;;;;;5043208;28;20025;-35
2023/10/10 10:37:06;;;;;;;15.33;8.03;;;;;;;;;;5042997;28;20106;-35
2023/10/10 10:39:35;;;;;;;16.42;8.10;;;;;;;;;;5043814;28;20040;-35
2023/10/10 10:42:01;;;;;;;15.90;7.82;;;;;;;;;;5044484;28;20045;-35
2023/10/10 10:44:44;;;;;;;17.23;9.27;;;;;;;;;;5045441;28;20387;-36
2023/10/10 10:47:28;;;;;;;20.80;9.85;;;;;;;;;;5040781;28;20025;-35
2023/10/10 10:49:54;;;;;;;18.17;8.45;;;;;;;;;;5043212;28;20446;-35
2023/10/10 10:52:43;;;;;;;19.98;8.93;;;;;;;;;;5042195;28;20025;-36
2023/10/10 10:55:25;;;;;;;18.58;8.73;;;;;;;;;;5044566;28;20052;-35
2023/10/10 10:58:05;;;;;;;;;;;;;;;;;;5035150;28;20040;-35
2023/10/10 11:03:32;;;;;;;16.80;9.55;;;;;;;;;;5042260;28;20495;-35
2023/10/10 11:05:57;;;;;;;22.00;10.55;;;;;;;;;;5046098;28;20437;-35
2023/10/10 11:08:52;;;;;;;18.98;9.40;;;;;;;;;;5043359;28;20029;-35
2023/10/10 11:11:24;;;;;;;21.98;9.10;;;;;;;;;;5044762;28;20040;-35
2023/10/10 11:13:54;;;;;;;19.25;8.60;;;;;;;;;;5028525;28;20091;-35
2023/10/10 11:16:36;;;;;;;18.48;9.15;;;;;;;;;;5045560;28;20087;-35
2023/10/10 11:19:12;;;;;;;20.88;9.43;;;;;;;;;;5025137;28;20029;-35
2023/10/10 11:21:37;;;;;;;21.45;10.02;;;;;;;;;;5045465;28;20047;-36
2023/10/10 11:24:04;;;;;;;10.15;5.05;;;;;;;;;;5043477;28;20025;-36
2023/10/10 11:26:35;;;;;;;15.82;7.47;;;;;;;;;;5039110;28;20013;-36
2023/10/10 11:29:00;;;;;;;12.88;6.72;;;;;;;;;;5039689;28;20075;-36
2023/10/10 11:31:29;;;;;;;11.68;6.00;;;;;;;;;;5043566;28;20024;-36
2023/10/10 11:34:42;;;;;;;12.82;6.25;;;;;;;;;;5046636;28;20041;-36
2023/10/10 11:36:51;;;;;;;11.95;6.28;;;;;;;;;;5042512;28;20094;-36
2023/10/10 11:39:31;;;;;;;10.38;5.63;;;;;;;;;;5044718;28;20479;-36
2023/10/10 11:41:56;;;;;;;13.98;5.97;;;;;;;;;;5044676;28;20025;-36
2023/10/10 11:44:21;;;;;;;10.32;5.90;;;;;;;;;;5042807;28;20387;-36
2023/10/10 11:46:49;;;;;;;12.50;6.20;;;;;;;;;;5047175;28;20021;-36
2023/10/10 11:49:15;;;;;;;10.85;5.88;;;;;;;;;;5040883;28;20379;-36
2023/10/10 11:51:41;;;;;;;9.00;5.18;;;;;;;;;;5046298;28;20024;-36
2023/10/10 11:54:07;;;;;;;12.15;5.38;;;;;;;;;;5048172;28;20029;-36
2023/10/10 11:56:34;;;;;;;8.05;4.82;;;;;;;;;;5038395;28;20021;-36
2023/10/10 11:59:10;;;;;;;11.68;4.57;;;;;;;;;;5046579;28;20040;-36
2023/10/10 12:01:51;;;;;;;7.88;5.20;;;;;;;;;;5044490;28;20044;-36
2023/10/10 12:04:32;;;;;;;10.67;5.10;;;;;;;;;;5042858;28;20025;-36
2023/10/10 12:19:09;;;;;;;10.10;4.05;;;;;;;;;;5034576;28;20086;-36
2023/10/10 12:21:34;;;;;;;5.97;3.70;;;;;;;;;;5045394;28;20029;-36
2023/10/10 12:24:00;;;;;;;8.37;4.37;;;;;;;;;;5030603;28;20025;-36
2023/10/10 12:26:25;;;;;;;12.27;4.13;;;;;;;;;;5045323;28;20916;-36
2023/10/10 12:28:54;;;;;;;6.87;3.63;;;;;;;;;;5044548;28;20064;-36
2023/10/10 12:31:21;;;;;;;6.60;3.95;;;;;;;;;;5043247;28;20272;-36
2023/10/10 12:33:48;;;;;;;7.18;4.22;;;;;;;;;;5046745;28;20029;-36
2023/10/10 12:36:15;;;;;;;8.27;4.50;;;;;;;;;;5054015;28;20021;-35
2023/10/10 12:38:42;;;;;;;7.95;4.65;;;;;;;;;;5049694;28;20545;-36
2023/10/10 12:41:13;;;;;;;8.38;4.25;;;;;;;;;;5049982;28;20028;-37
2023/10/10 12:43:39;;;;;;;8.77;4.72;;;;;;;;;;5047597;28;20024;-36
2023/10/10 12:46:07;;;;;;;9.98;4.68;;;;;;;;;;5044057;28;20090;-36
2023/10/10 12:48:38;;;;;;;5.15;3.72;;;;;;;;;;5046608;28;20025;-36
2023/10/10 12:51:04;;;;;;;6.45;4.10;;;;;;;;;;5046916;28;20025;-36
2023/10/10 12:53:32;;;;;;;11.77;5.57;;;;;;;;;;5047995;28;20023;-36
2023/10/10 12:56:05;;;;;;;8.23;5.43;;;;;;;;;;5046821;28;20271;-36
2023/10/10 12:58:31;;;;;;;6.40;3.67;;;;;;;;;;5031361;28;20020;-36
2023/10/10 13:00:58;;;;;;;6.32;3.70;;;;;;;;;;5042547;28;20051;-36
2023/10/10 13:03:27;;;;;;;5.82;3.78;;;;;;;;;;5046671;28;20055;-37
2023/10/10 13:05:58;;;;;;;9.20;4.97;;;;;;;;;;5048012;28;20024;-36
2023/10/10 13:08:24;;;;;;;6.40;3.90;;;;;;;;;;5047651;28;20100;-36
2023/10/10 13:10:54;;;;;;;5.93;3.55;;;;;;;;;;5050152;28;20103;-36
2023/10/10 13:13:31;;;;;;;6.55;3.80;;;;;;;;;;5045978;28;20813;-37
2023/10/10 13:16:22;;;;;;;6.07;3.15;;;;;;;;;;5045620;28;20031;-36
2023/10/10 13:18:57;;;;;;;6.90;3.30;;;;;;;;;;5041382;28;20013;-36
2023/10/10 13:21:25;;;;;;;6.90;3.42;;;;;;;;;;5042922;28;20430;-36
2023/10/10 13:23:51;;;;;;;5.70;3.25;;;;;;;;;;5046074;28;20780;-37
2023/10/10 13:26:17;;;;;;;5.35;3.67;;;;;;;;;;5046738;28;20026;-37
2023/10/10 13:28:44;;;;;;;7.10;3.53;;;;;;;;;;5032538;28;20215;-37
2023/10/10 13:31:19;;;;;;;7.50;4.30;;;;;;;;;;5036541;28;20025;-36
2023/10/10 13:33:45;;;;;;;9.63;3.95;;;;;;;;;;5044802;28;20029;-37
2023/10/10 13:36:15;;;;;;;7.97;4.82;;;;;;;;;;5048454;28;20028;-37
2023/10/10 13:38:48;;;;;;;9.80;5.22;;;;;;;;;;5048476;28;20028;-37
2023/10/10 13:41:18;;;;;;;8.30;5.20;;;;;;;;;;5041467;28;20029;-37
2023/10/10 13:43:47;;;;;;;11.60;6.03;;;;;;;;;;5041228;28;20027;-37
2023/10/10 13:46:18;;;;;;;8.05;5.45;;;;;;;;;;5045759;28;20043;-36
2023/10/10 13:48:43;;;;;;;9.05;5.53;;;;;;;;;;5044844;28;20024;-37
2023/10/10 13:51:09;;;;;;;7.28;4.43;;;;;;;;;;5046427;28;20395;-36
2023/10/10 13:53:35;;;;;;;7.35;5.18;;;;;;;;;;5044115;28;20064;-36
2023/10/10 13:56:01;;;;;;;7.65;5.28;;;;;;;;;;5041061;28;22124;-37
2023/10/10 13:58:26;;;;;;;10.50;5.60;;;;;;;;;;5050635;28;20032;-36
2023/10/10 14:03:49;;;;;;;8.55;4.60;;;;;;;;;;4997932;28;21465;-36
2023/10/10 14:06:16;;;;;;;8.38;4.60;;;;;;;;;;5042584;28;20022;-37
2023/10/10 14:08:47;;;;;;;10.50;5.47;;;;;;;;;;5043309;28;20029;-37
2023/10/10 14:11:20;;;;;;;6.85;4.22;;;;;;;;;;5041310;28;20029;-37
2023/10/10 14:13:46;;;;;;;7.07;4.35;;;;;;;;;;5030367;28;20065;-37
2023/10/10 14:16:11;;;;;;;8.32;4.25;;;;;;;;;;5041184;28;20060;-36
2023/10/10 14:18:43;;;;;;;8.63;4.07;;;;;;;;;;5044406;28;20013;-36
2023/10/10 14:21:12;;;;;;;8.40;3.40;;;;;;;;;;5042369;28;20310;-36
2023/10/10 14:23:39;;;;;;;5.57;3.13;;;;;;;;;;5041558;28;20506;-36
2023/10/10 14:26:13;;;;;;;4.90;3.13;;;;;;;;;;5039598;28;20108;-36
2023/10/10 14:28:49;;;;;;;7.82;3.60;;;;;;;;;;5039720;28;20021;-36
2023/10/10 14:31:14;;;;;;;8.00;3.35;;;;;;;;;;5042215;28;20088;-36
2023/10/10 14:33:40;;;;;;;4.47;2.83;;;;;;;;;;5039041;28;20158;-36
2023/10/10 14:36:11;;;;;;;6.45;2.65;;;;;;;;;;5042120;28;20395;-36
2023/10/10 14:38:36;;;;;;;4.60;2.78;;;;;;;;;;5039821;28;20392;-36
2023/10/10 14:41:01;;;;;;;3.15;1.98;;;;;;;;;;5042335;28;20041;-36
2023/10/10 14:43:27;;;;;;;7.20;2.37;;;;;;;;;;5025164;28;20384;-36
2023/10/10 14:45:53;;;;;;;4.53;2.55;;;;;;;;;;5040401;28;20307;-36
2023/10/10 14:48:21;;;;;;;5.18;2.15;;;;;;;;;;5043479;28;20384;-36
2023/10/10 14:50:57;;;;;;;7.00;2.53;;;;;;;;;;5043186;28;20032;-36
2023/10/10 14:53:22;;;;;;;4.60;1.88;;;;;;;;;;5042680;28;20029;-36
2023/10/10 14:55:51;;;;;;;3.53;2.22;;;;;;;;;;5041037;28;20043;-36
2023/10/10 14:58:16;;;;;;;4.22;1.90;;;;;;;;;;5042275;28;20063;-36
2023/10/10 15:00:44;;;;;;;4.15;2.08;;;;;;;;;;5041069;28;20052;-36
2023/10/10 15:03:15;;;;;;;3.10;1.73;;;;;;;;;;5037076;28;20021;-36
2023/10/10 15:05:47;;;;;;;5.00;2.15;;;;;;;;;;5041967;28;20078;-36
2023/10/10 15:08:13;;;;;;;4.22;1.85;;;;;;;;;;5039976;28;20031;-36
2023/10/10 15:10:40;;;;;;;7.38;1.65;;;;;;;;;;5040144;28;20020;-36
2023/10/10 15:13:08;;;;;;;2.45;1.60;;;;;;;;;;5043540;28;20044;-36
2023/10/10 15:15:34;;;;;;;3.70;1.63;;;;;;;;;;5038917;28;20399;-36
2023/10/10 15:17:59;;;;;;;2.58;1.10;;;;;;;;;;5046045;28;20017;-38
2023/10/10 15:20:27;;;;;;;2.17;1.25;;;;;;;;;;5043659;28;20033;-37
2023/10/10 15:22:52;;;;;;;4.03;1.42;;;;;;;;;;5037289;28;20022;-37
2023/10/10 15:25:19;;;;;;;5.95;1.27;;;;;;;;;;5035517;28;20036;-37
2023/10/10 15:27:44;;;;;;;1.77;1.20;;;;;;;;;;5036040;28;20033;-36
2023/10/10 15:30:10;;;;;;;8.07;1.42;;;;;;;;;;5042011;28;20017;-37
2023/10/10 15:32:47;;;;;;;1.20;0.90;;;;;;;;;;5039623;28;20024;-37
2023/10/10 15:35:13;;;;;;;5.65;2.25;;;;;;;;;;5040817;28;20046;-36
2023/10/10 15:37:44;;;;;;;7.40;3.17;;;;;;;;;;5042389;28;20017;-36
2023/10/10 15:40:13;;;;;;;5.55;2.05;;;;;;;;;;5038836;28;20017;-36
2023/10/10 15:42:38;;;;;;;3.83;2.05;;;;;;;;;;5038770;28;20025;-37
2023/10/10 15:45:05;;;;;;;2.47;1.45;;;;;;;;;;5031863;28;20035;-37
2023/10/10 15:47:30;;;;;;;2.03;1.20;;;;;;;;;;5036941;28;20025;-37
2023/10/10 15:50:00;;;;;;;4.70;1.35;;;;;;;;;;5043303;28;20032;-37
2023/10/10 15:52:25;;;;;;;4.05;1.33;;;;;;;;;;5042216;28;20810;-38
2023/10/10 15:54:50;;;;;;;3.95;1.95;;;;;;;;;;5034018;28;20543;-38
2023/10/10 15:57:16;;;;;;;4.10;2.67;;;;;;;;;;5035496;28;20025;-37
2023/10/10 15:59:41;;;;;;;10.20;5.67;;;;;;;;;;5042223;28;20271;-37
2023/10/10 16:02:09;;;;;;;7.78;2.70;;;;;;;;;;5046031;28;20974;-37
2023/10/10 16:04:34;;;;;;;10.63;2.95;;;;;;;;;;5043930;28;20080;-38
2023/10/10 16:07:01;;;;;;;5.20;3.05;;;;;;;;;;5040011;28;20392;-37
2023/10/10 16:09:29;;;;;;;8.90;3.58;;;;;;;;;;5038907;28;20081;-37
2023/10/10 16:11:55;;;;;;;15.98;4.85;;;;;;;;;;5029835;28;20025;-37
2023/10/10 16:14:21;;;;;;;12.52;5.47;;;;;;;;;;5039758;28;20094;-37
2023/10/10 16:16:47;;;;;;;9.20;4.22;;;;;;;;;;5042247;28;20040;-36
2023/10/10 16:19:25;;;;;;;5.53;2.08;;;;;;;;;;5040657;28;20029;-38
2023/10/10 16:21:52;;;;;;;5.47;1.80;;;;;;;;;;5035228;28;20727;-38
2023/10/10 16:24:18;;;;;;;5.50;2.22;;;;;;;;;;5035133;28;20506;-37
2023/10/10 16:26:44;;;;;;;5.05;2.95;;;;;;;;;;5044776;28;20017;-37
2023/10/10 16:29:11;;;;;;;12.48;2.85;;;;;;;;;;5040116;28;20025;-36
2023/10/10 16:31:36;;;;;;;5.50;2.80;;;;;;;;;;5041290;28;20027;-38
2023/10/10 16:34:02;;;;;;;2.35;1.45;;;;;;;;;;5040742;28;20036;-38
2023/10/10 16:36:28;;;;;;;4.90;2.20;;;;;;;;;;5044076;28;20089;-38
2023/10/10 16:38:54;;;;;;;3.75;2.42;;;;;;;;;;5039710;28;20025;-38
2023/10/10 16:41:19;;;;;;;8.40;4.95;;;;;;;;;;5041944;28;20033;-38
2023/10/10 16:43:46;;;;;;;16.55;8.68;;;;;;;;;;5042262;28;20021;-38
2023/10/10 16:46:12;;;;;;;12.95;5.93;;;;;;;;;;5038051;28;20048;-37
2023/10/10 16:48:41;;;;;;;9.18;3.97;;;;;;;;;;5038734;28;20108;-38
2023/10/10 16:51:08;;;;;;;2.83;1.40;;;;;;;;;;5036569;28;20479;-38
2023/10/10 16:53:33;;;;;;;2.92;1.40;;;;;;;;;;5039733;28;20028;-37
2023/10/10 16:56:06;;;;;;;5.63;2.60;;;;;;;;;;5035961;28;20021;-37
2023/10/10 16:58:33;;;;;;;5.22;2.55;;;;;;;;;;5041159;22;20132;-38
2023/10/10 17:01:03;;;;;;;5.32;2.28;;;;;;;;;;5035367;28;20057;-39
2023/10/10 17:03:32;;;;;;;4.15;1.80;;;;;;;;;;5035429;28;20032;-38
2023/10/10 17:05:57;;;;;;;3.63;2.20;;;;;;;;;;5039898;28;20076;-38
2023/10/10 17:08:22;;;;;;;10.07;3.35;;;;;;;;;;5031608;28;20033;-38
2023/10/10 17:10:50;;;;;;;10.87;4.80;;;;;;;;;;5022501;28;20021;-37
2023/10/10 17:13:15;;;;;;;6.75;3.05;;;;;;;;;;5023139;28;20030;-38
2023/10/10 17:15:45;;;;;;;16.20;6.88;;;;;;;;;;5018795;28;20040;-38
2023/10/10 17:18:11;;;;;;;11.95;4.88;;;;;;;;;;5022608;28;20022;-38
2023/10/10 17:20:37;;;;;;;7.40;3.30;;;;;;;;;;5020486;28;20028;-38
2023/10/10 17:23:03;;;;;;;7.10;3.42;;;;;;;;;;5028083;28;20033;-38
2023/10/10 17:25:31;;;;;;;4.82;2.95;;;;;;;;;;5020786;28;20022;-38
2023/10/10 17:27:57;;;;;;;4.93;3.10;;;;;;;;;;5022305;28;20434;-38
2023/10/10 17:30:27;;;;;;;4.47;2.55;;;;;;;;;;5018975;28;20029;-39
2023/10/10 17:32:52;;;;;;;4.82;2.80;;;;;;;;;;5014586;28;20030;-39
2023/10/10 17:35:17;;;;;;;4.65;2.30;;;;;;;;;;5013639;28;20034;-37
2023/10/10 17:37:44;;;;;;;5.00;2.65;;;;;;;;;;5022778;28;20030;-36
2023/10/10 17:40:12;;;;;;;5.93;2.63;;;;;;;;;;5020509;28;20037;-38
2023/10/10 17:42:38;;;;;;;37.83;6.70;;;;;;;;;;5024711;28;21042;-39
2023/10/10 17:45:11;;;;;;;10.70;6.13;;;;;;;;;;5023505;28;20017;-39